Time;durP1;ratioP1;P1;durP2;ratioP2;P2;SDS_P1;SDS_P2;PMS_P1;PMS_P2;Temp;Humidity;BMP_temperature;BMP_pressure;BME280_temperature;BME280_humidity;BME280_pressure;Samples;Min_cycle;Max_cycle;Signal;HPM_P1;HPM_P2
2024/01/02 00:02:06;;;;;;;2.57;1.60;;;21.70;56.50;;;;;;4929513;29;20455;-83
2024/01/02 00:04:34;;;;;;;2.40;2.20;;;21.70;56.60;;;;;;4931720;29;20509;-84
2024/01/02 00:07:03;;;;;;;2.20;1.77;;;21.70;56.60;;;;;;4923076;29;20456;-85
2024/01/02 00:09:31;;;;;;;1.87;1.50;;;21.70;56.60;;;;;;4922311;29;21042;-86
2024/01/02 00:11:59;;;;;;;2.00;1.83;;;21.70;56.70;;;;;;4931042;29;20794;-83
2024/01/02 00:14:29;;;;;;;3.20;2.07;;;21.70;56.70;;;;;;4933882;29;20992;-85
2024/01/02 00:16:57;;;;;;;1.70;1.60;;;21.60;56.60;;;;;;4924878;29;20468;-84
2024/01/02 00:19:25;;;;;;;4.37;1.93;;;21.60;56.60;;;;;;4924081;29;20464;-83
2024/01/02 00:21:54;;;;;;;3.90;1.67;;;21.60;56.60;;;;;;4927569;29;20468;-83
2024/01/02 00:24:22;;;;;;;2.00;1.50;;;21.60;56.40;;;;;;4928150;29;20895;-83
2024/01/02 00:26:51;;;;;;;2.13;1.70;;;21.60;56.60;;;;;;4922706;29;20495;-84
2024/01/02 00:29:19;;;;;;;2.50;1.67;;;21.60;56.70;;;;;;4897995;29;20470;-83
2024/01/02 00:31:49;;;;;;;1.77;1.67;;;21.60;56.50;;;;;;4914107;29;20472;-84
2024/01/02 00:34:17;;;;;;;2.07;1.33;;;21.50;56.60;;;;;;4898482;29;20473;-84
2024/01/02 00:36:46;;;;;;;1.53;1.33;;;21.50;56.70;;;;;;4915464;29;20455;-83
2024/01/02 00:39:15;;;;;;;1.63;1.53;;;21.50;56.60;;;;;;4912701;29;20464;-87
2024/01/02 00:41:44;;;;;;;1.50;1.40;;;21.50;56.40;;;;;;4896481;29;20464;-83
2024/01/02 00:44:12;;;;;;;1.50;1.40;;;21.50;56.50;;;;;;4911821;29;20464;-84
2024/01/02 00:46:40;;;;;;;2.80;1.80;;;21.50;56.50;;;;;;4897770;29;20456;-86
2024/01/02 00:49:10;;;;;;;2.33;1.83;;;21.40;56.80;;;;;;4914441;29;20460;-84
2024/01/02 00:51:38;;;;;;;3.53;1.73;;;21.40;56.80;;;;;;4914439;29;20460;-85
2024/01/02 00:54:06;;;;;;;2.67;1.57;;;21.40;56.80;;;;;;4916346;29;20447;-85
2024/01/02 00:56:35;;;;;;;2.47;1.27;;;21.40;56.80;;;;;;4911082;29;20466;-96
2024/01/02 00:59:03;;;;;;;1.50;1.40;;;21.40;56.70;;;;;;4917850;29;20467;-83
2024/01/02 01:01:31;;;;;;;2.10;1.20;;;21.40;56.70;;;;;;4897245;29;20667;-83
2024/01/02 01:04:02;;;;;;;2.83;1.43;;;21.40;56.70;;;;;;4911991;29;21001;-86
2024/01/02 01:06:32;;;;;;;1.37;1.27;;;21.40;56.70;;;;;;4898287;29;20483;-85
2024/01/02 01:09:00;;;;;;;1.07;0.97;;;21.40;56.60;;;;;;4915629;29;20507;-84
2024/01/02 01:11:29;;;;;;;1.53;1.43;;;21.40;56.80;;;;;;4908136;29;20478;-83
2024/01/02 01:13:57;;;;;;;1.93;1.40;;;21.40;56.80;;;;;;4918241;29;20499;-88
2024/01/02 01:16:24;;;;;;;2.53;1.30;;;21.40;56.80;;;;;;4884125;29;20473;-83
2024/01/02 01:18:53;;;;;;;3.27;1.20;;;21.40;56.80;;;;;;4915212;29;20466;-83
2024/01/02 01:21:21;;;;;;;1.23;1.10;;;21.40;56.80;;;;;;4914197;29;20514;-84
2024/01/02 01:23:51;;;;;;;1.90;1.20;;;21.30;56.80;;;;;;4905790;29;20447;-84
2024/01/02 01:26:19;;;;;;;2.10;1.77;;;21.30;56.80;;;;;;4939414;28;20492;-83
2024/01/02 01:28:47;;;;;;;1.37;1.20;;;21.30;56.80;;;;;;4928231;29;20493;-84
2024/01/02 01:31:15;;;;;;;2.00;1.47;;;21.30;56.80;;;;;;4943511;29;20460;-90
2024/01/02 01:33:43;;;;;;;1.20;1.10;;;21.30;56.80;;;;;;4952349;29;20473;-83
2024/01/02 01:36:14;;;;;;;3.10;1.50;;;21.30;56.80;;;;;;4936683;29;20503;-83
2024/01/02 01:38:43;;;;;;;1.57;1.47;;;21.30;56.80;;;;;;4953775;29;20941;-90
2024/01/02 01:41:13;;;;;;;1.70;1.60;;;21.30;56.80;;;;;;4937101;29;20450;-84
2024/01/02 01:43:41;;;;;;;1.40;1.07;;;21.30;56.80;;;;;;4932565;29;20945;-83
2024/01/02 01:46:09;;;;;;;2.10;1.50;;;21.30;56.80;;;;;;4934196;29;20488;-82
2024/01/02 01:48:38;;;;;;;1.37;1.27;;;21.30;56.80;;;;;;4944657;29;20802;-85
2024/01/02 01:51:08;;;;;;;1.50;1.27;;;21.30;56.80;;;;;;4953817;29;20781;-83
2024/01/02 01:53:38;;;;;;;1.70;1.50;;;21.30;56.60;;;;;;4945709;29;20441;-82
2024/01/02 01:56:07;;;;;;;2.57;1.77;;;21.30;56.70;;;;;;4917582;29;20458;-83
2024/01/02 01:58:37;;;;;;;1.47;1.37;;;21.20;56.70;;;;;;4917933;29;20451;-85
2024/01/02 02:01:06;;;;;;;1.43;1.33;;;21.20;56.70;;;;;;4918157;29;20480;-83
2024/01/02 02:03:34;;;;;;;1.30;1.20;;;21.20;56.80;;;;;;4932731;29;20543;-83
2024/01/02 02:06:03;;;;;;;1.50;1.40;;;21.20;56.70;;;;;;4954383;29;20889;-82
2024/01/02 02:08:31;;;;;;;1.10;1.10;;;21.20;56.70;;;;;;4937994;29;20465;-83
2024/01/02 02:11:00;;;;;;;1.37;1.27;;;21.20;56.80;;;;;;4921496;29;20542;-82
2024/01/02 02:13:28;;;;;;;0.70;0.70;;;21.20;56.80;;;;;;4920916;29;20539;-86
2024/01/02 02:16:00;;;;;;;1.03;0.93;;;21.10;56.80;;;;;;4939130;29;20498;-83
2024/01/02 02:18:28;;;;;;;1.43;1.30;;;21.10;56.90;;;;;;4955879;29;20523;-83
2024/01/02 02:20:57;;;;;;;3.37;1.57;;;21.10;56.90;;;;;;4943254;29;20878;-83
2024/01/02 02:23:27;;;;;;;1.83;1.30;;;21.10;56.90;;;;;;4937116;29;20458;-83
2024/01/02 02:25:55;;;;;;;1.00;1.00;;;21.10;56.90;;;;;;4920776;29;20490;-83
2024/01/02 02:28:23;;;;;;;1.50;1.00;;;21.10;56.90;;;;;;4935373;29;20473;-82
2024/01/02 02:30:51;;;;;;;0.93;0.93;;;21.10;56.80;;;;;;4938493;29;20454;-84
2024/01/02 02:33:20;;;;;;;0.77;0.77;;;21.10;56.90;;;;;;4920379;29;20474;-83
2024/01/02 02:35:48;;;;;;;1.23;0.83;;;21.10;56.90;;;;;;4937966;29;20478;-89
2024/01/02 02:38:16;;;;;;;1.70;1.10;;;21.10;56.90;;;;;;4936416;29;20468;-83
2024/01/02 02:40:45;;;;;;;1.20;1.10;;;21.10;56.90;;;;;;4954030;29;20450;-83
2024/01/02 02:43:13;;;;;;;1.50;1.20;;;21.10;56.80;;;;;;4955635;29;20483;-85
2024/01/02 02:45:42;;;;;;;3.07;1.40;;;21.10;56.90;;;;;;4954423;29;20561;-83
2024/01/02 02:48:10;;;;;;;1.53;1.27;;;21.10;56.90;;;;;;4952231;29;20944;-83
2024/01/02 02:50:39;;;;;;;1.00;0.93;;;21.10;56.80;;;;;;4942303;29;20479;-82
2024/01/02 02:53:07;;;;;;;1.10;1.00;;;21.10;56.80;;;;;;4955302;29;20499;-83
2024/01/02 02:55:36;;;;;;;1.67;1.00;;;21.10;56.80;;;;;;4956345;29;20436;-83
2024/01/02 02:58:05;;;;;;;2.00;1.20;;;21.10;56.90;;;;;;4937464;29;20485;-82
2024/01/02 03:00:35;;;;;;;1.70;1.30;;;21.00;56.80;;;;;;4937507;29;20450;-83
2024/01/02 03:03:05;;;;;;;1.27;1.17;;;21.00;56.80;;;;;;4936341;29;20498;-83
2024/01/02 03:05:33;;;;;;;0.90;0.90;;;21.00;56.80;;;;;;4937257;29;20439;-83
2024/01/02 03:08:01;;;;;;;1.43;1.03;;;21.00;56.80;;;;;;4937103;29;20453;-83
2024/01/02 03:10:29;;;;;;;1.73;1.30;;;21.00;56.80;;;;;;4936980;29;20529;-82
2024/01/02 03:12:58;;;;;;;1.23;1.13;;;21.00;56.80;;;;;;4936605;29;21710;-84
2024/01/02 03:15:28;;;;;;;1.47;1.20;;;21.00;56.80;;;;;;4943655;29;20471;-84
2024/01/02 03:17:56;;;;;;;0.90;0.90;;;21.00;56.70;;;;;;4932326;29;20471;-83
2024/01/02 03:20:24;;;;;;;2.60;1.37;;;21.00;56.60;;;;;;4935746;29;20498;-83
2024/01/02 03:22:53;;;;;;;1.00;1.00;;;21.00;56.80;;;;;;4936175;29;20437;-84
2024/01/02 03:25:23;;;;;;;1.20;1.10;;;21.00;56.70;;;;;;4936844;29;20857;-83
2024/01/02 03:27:52;;;;;;;1.47;1.17;;;21.00;56.60;;;;;;4910701;29;20498;-84
2024/01/02 03:30:20;;;;;;;2.07;1.10;;;20.90;56.80;;;;;;4916549;29;20887;-83
2024/01/02 03:32:49;;;;;;;1.23;1.00;;;21.00;56.70;;;;;;4918088;29;20934;-82
2024/01/02 03:35:18;;;;;;;0.90;0.90;;;20.90;56.50;;;;;;4916765;29;20556;-82
2024/01/02 03:37:46;;;;;;;0.70;0.67;;;20.90;56.80;;;;;;4917852;29;20434;-83
2024/01/02 03:40:14;;;;;;;1.93;1.10;;;20.90;56.80;;;;;;4901087;29;20971;-82
2024/01/02 03:42:43;;;;;;;1.17;1.07;;;20.90;56.60;;;;;;4917511;29;20538;-82
2024/01/02 03:45:11;;;;;;;1.07;0.97;;;20.90;56.60;;;;;;4912957;29;20475;-84
2024/01/02 03:47:40;;;;;;;1.33;1.10;;;20.90;56.80;;;;;;4916262;29;20984;-83
2024/01/02 03:50:10;;;;;;;1.10;1.00;;;20.90;56.70;;;;;;4917355;29;20445;-83
2024/01/02 03:52:38;;;;;;;1.10;0.93;;;20.90;56.80;;;;;;4916733;29;20489;-82
2024/01/02 03:55:07;;;;;;;1.00;0.97;;;20.90;56.70;;;;;;4900797;29;20458;-82
2024/01/02 03:57:35;;;;;;;1.23;1.13;;;20.90;56.90;;;;;;4900442;29;20474;-83
2024/01/02 04:00:05;;;;;;;0.97;0.93;;;20.90;56.50;;;;;;4912676;29;20538;-82
2024/01/02 04:02:33;;;;;;;1.30;1.10;;;20.80;56.60;;;;;;4915530;29;20454;-83
2024/01/02 04:05:03;;;;;;;1.17;1.07;;;20.80;56.50;;;;;;4900140;29;20518;-82
2024/01/02 04:07:32;;;;;;;1.43;1.13;;;20.80;56.60;;;;;;4921157;29;20475;-83
2024/01/02 04:10:01;;;;;;;0.97;0.93;;;20.80;56.50;;;;;;4927325;29;20504;-83
2024/01/02 04:12:29;;;;;;;1.07;1.00;;;20.80;56.50;;;;;;4933750;29;20539;-88
2024/01/02 04:14:57;;;;;;;1.50;1.20;;;20.80;56.70;;;;;;4913544;29;20492;-86
2024/01/02 04:17:25;;;;;;;1.43;0.80;;;20.70;56.60;;;;;;4916859;29;20544;-83
2024/01/02 04:19:54;;;;;;;1.10;1.10;;;20.70;56.60;;;;;;4921606;29;20457;-83
2024/01/02 04:22:23;;;;;;;1.27;1.17;;;20.70;56.60;;;;;;4916455;29;20858;-84
2024/01/02 04:24:52;;;;;;;0.87;0.87;;;20.70;56.70;;;;;;4916839;29;20444;-83
2024/01/02 04:27:21;;;;;;;1.20;1.00;;;20.70;56.60;;;;;;4928105;29;20493;-83
2024/01/02 04:29:49;;;;;;;0.93;0.93;;;20.70;56.70;;;;;;4941796;29;20459;-88
2024/01/02 04:32:17;;;;;;;1.30;1.20;;;20.70;56.50;;;;;;4934243;29;20898;-83
2024/01/02 04:34:45;;;;;;;0.87;0.87;;;20.70;56.70;;;;;;4918508;29;20528;-83
2024/01/02 04:37:14;;;;;;;0.80;0.80;;;20.70;56.80;;;;;;4934259;29;20814;-83
2024/01/02 04:39:42;;;;;;;1.20;1.20;;;20.70;56.70;;;;;;4939498;29;20461;-83
2024/01/02 04:42:12;;;;;;;1.10;1.00;;;20.70;56.70;;;;;;4954556;29;20475;-84
2024/01/02 04:44:40;;;;;;;1.37;1.27;;;20.70;56.80;;;;;;4947751;29;20932;-84
2024/01/02 04:47:08;;;;;;;1.50;0.93;;;20.70;56.60;;;;;;4935333;29;20468;-83
2024/01/02 04:49:36;;;;;;;2.50;0.80;;;20.60;56.50;;;;;;4939572;29;20474;-82
2024/01/02 04:52:05;;;;;;;1.47;0.83;;;20.60;56.60;;;;;;4933480;29;20468;-85
2024/01/02 04:54:34;;;;;;;0.70;0.70;;;20.60;56.50;;;;;;4935150;29;20433;-82
2024/01/02 04:57:02;;;;;;;0.90;0.80;;;20.60;56.50;;;;;;4935267;29;20818;-83
2024/01/02 04:59:31;;;;;;;1.00;0.90;;;20.60;56.60;;;;;;4940455;29;20791;-83
2024/01/02 05:02:00;;;;;;;0.87;0.87;;;20.60;56.50;;;;;;4933836;29;20485;-83
2024/01/02 05:04:28;;;;;;;1.00;0.90;;;20.60;56.50;;;;;;4916536;29;20481;-83
2024/01/02 05:06:57;;;;;;;2.13;1.00;;;20.60;56.70;;;;;;4927543;29;20555;-83
2024/01/02 05:09:26;;;;;;;0.70;0.70;;;20.60;56.90;;;;;;4949719;29;20477;-82
2024/01/02 05:11:54;;;;;;;0.90;0.90;;;20.70;56.60;;;;;;4950545;29;20460;-83
2024/01/02 05:14:22;;;;;;;1.00;0.90;;;20.70;56.50;;;;;;4928016;29;20454;-83
2024/01/02 05:16:52;;;;;;;0.93;0.93;;;20.70;56.50;;;;;;4915709;29;20442;-83
2024/01/02 05:19:20;;;;;;;0.70;0.70;;;20.80;56.50;;;;;;4921196;29;20467;-85
2024/01/02 05:21:51;;;;;;;0.70;0.70;;;20.80;56.50;;;;;;4928718;29;20509;-83
2024/01/02 05:24:19;;;;;;;0.90;0.90;;;20.90;56.40;;;;;;4918277;29;20431;-82
2024/01/02 05:26:47;;;;;;;0.93;0.93;;;20.90;56.40;;;;;;4934650;29;20997;-82
2024/01/02 05:29:15;;;;;;;1.07;0.80;;;21.00;56.40;;;;;;4934164;29;20465;-88
2024/01/02 05:31:43;;;;;;;1.20;1.03;;;21.10;56.20;;;;;;4936159;29;20461;-83
2024/01/02 05:34:13;;;;;;;1.47;1.07;;;21.10;56.00;;;;;;4934561;29;20446;-83
2024/01/02 05:36:43;;;;;;;1.10;0.73;;;21.20;56.00;;;;;;4923956;29;20464;-83
2024/01/02 05:39:11;;;;;;;0.80;0.73;;;21.30;56.00;;;;;;4957487;29;20551;-83
2024/01/02 05:41:39;;;;;;;0.97;0.87;;;21.30;55.80;;;;;;4940570;29;20870;-88
2024/01/02 05:44:09;;;;;;;0.60;0.60;;;21.40;55.80;;;;;;4927914;29;20472;-82
2024/01/02 05:46:37;;;;;;;0.80;0.80;;;21.50;55.70;;;;;;4933638;29;20462;-86
2024/01/02 05:49:05;;;;;;;1.00;1.00;;;21.60;55.80;;;;;;4941736;29;20477;-84
2024/01/02 05:51:35;;;;;;;0.63;0.63;;;21.60;55.60;;;;;;4943514;29;20548;-83
2024/01/02 05:54:03;;;;;;;0.87;0.80;;;21.70;55.40;;;;;;4960742;28;20446;-83
2024/01/02 05:56:31;;;;;;;0.90;0.90;;;21.80;55.40;;;;;;4960354;28;20816;-83
2024/01/02 05:58:59;;;;;;;0.80;0.77;;;21.80;55.20;;;;;;4960907;29;21361;-83
2024/01/02 06:01:28;;;;;;;0.73;0.67;;;21.90;55.10;;;;;;4928414;29;20466;-82
2024/01/02 06:03:56;;;;;;;0.70;0.60;;;21.90;55.10;;;;;;4943060;29;20459;-83
2024/01/02 06:06:24;;;;;;;1.23;0.60;;;22.00;55.10;;;;;;4960304;28;20946;-82
2024/01/02 06:08:54;;;;;;;0.80;0.73;;;22.00;54.90;;;;;;4959837;28;20471;-83
2024/01/02 06:11:22;;;;;;;0.90;0.70;;;22.00;54.80;;;;;;4941601;29;20447;-83
2024/01/02 06:13:50;;;;;;;0.70;0.70;;;22.00;54.80;;;;;;4923979;29;20905;-84
2024/01/02 06:16:18;;;;;;;1.17;0.93;;;22.00;54.90;;;;;;4940314;29;20525;-83
2024/01/02 06:18:47;;;;;;;0.60;0.60;;;21.90;55.00;;;;;;4940328;29;20559;-83
2024/01/02 06:21:15;;;;;;;0.67;0.60;;;21.80;55.00;;;;;;4941054;29;20494;-83
2024/01/02 06:23:43;;;;;;;0.80;0.80;;;21.80;55.10;;;;;;4923536;29;20477;-84
2024/01/02 06:26:24;;;;;;;0.70;0.70;;;21.70;55.20;;;;;;4940747;29;20486;-84
2024/01/02 06:28:52;;;;;;;1.27;1.17;;;21.70;55.30;;;;;;4940535;29;20541;-83
2024/01/02 06:31:21;;;;;;;0.80;0.80;;;21.60;55.40;;;;;;4949031;29;20446;-84
2024/01/02 06:33:49;;;;;;;0.83;0.70;;;21.60;55.40;;;;;;4944744;29;21034;-83
2024/01/02 06:36:18;;;;;;;0.60;0.60;;;21.50;55.60;;;;;;4940739;29;20947;-83
2024/01/02 06:38:47;;;;;;;1.30;0.90;;;21.50;55.50;;;;;;4940695;29;20500;-83
2024/01/02 06:41:15;;;;;;;0.80;0.80;;;21.50;55.60;;;;;;4941035;29;20455;-85
2024/01/02 06:43:45;;;;;;;0.70;0.70;;;21.40;55.70;;;;;;4940453;29;21189;-83
2024/01/02 06:46:13;;;;;;;0.70;0.70;;;21.40;55.70;;;;;;4940343;29;20926;-83
2024/01/02 06:48:42;;;;;;;0.67;0.67;;;21.40;55.90;;;;;;4937906;29;20528;-83
2024/01/02 06:51:10;;;;;;;0.83;0.70;;;21.40;55.90;;;;;;4937292;29;20472;-90
2024/01/02 06:53:38;;;;;;;0.70;0.70;;;21.40;55.80;;;;;;4937338;29;20855;-83
2024/01/02 06:56:08;;;;;;;0.90;0.90;;;21.40;55.90;;;;;;4937977;29;20508;-83
2024/01/02 06:58:36;;;;;;;0.60;0.60;;;21.40;55.90;;;;;;4937228;29;20775;-83
2024/01/02 07:01:06;;;;;;;0.60;0.60;;;21.40;55.90;;;;;;4920684;29;20889;-83
2024/01/02 07:03:35;;;;;;;0.70;0.70;;;21.50;55.90;;;;;;4940994;29;20844;-83
2024/01/02 07:06:03;;;;;;;0.70;0.70;;;21.50;55.90;;;;;;4942948;29;20469;-83
2024/01/02 07:08:32;;;;;;;0.60;0.60;;;21.50;56.00;;;;;;4919243;29;20843;-83
2024/01/02 07:11:00;;;;;;;0.80;0.80;;;21.50;55.80;;;;;;4942836;29;20531;-83
2024/01/02 07:13:28;;;;;;;1.80;0.90;;;21.60;55.90;;;;;;4932529;29;20951;-85
2024/01/02 07:15:57;;;;;;;0.70;0.70;;;21.60;55.90;;;;;;4937351;29;20451;-83
2024/01/02 07:18:28;;;;;;;0.70;0.70;;;21.60;55.70;;;;;;4936779;29;20463;-83
2024/01/02 07:20:56;;;;;;;0.60;0.60;;;21.60;55.70;;;;;;4940362;29;20517;-82
2024/01/02 07:23:24;;;;;;;1.23;0.80;;;21.60;55.90;;;;;;4936965;29;21192;-83
2024/01/02 07:25:53;;;;;;;0.93;0.70;;;21.60;55.70;;;;;;4936923;29;20447;-84
2024/01/02 07:28:21;;;;;;;1.23;0.77;;;21.60;55.70;;;;;;4940098;29;20997;-83
2024/01/02 07:30:50;;;;;;;0.60;0.60;;;21.70;55.70;;;;;;4945121;29;20510;-83
2024/01/02 07:33:19;;;;;;;1.00;0.67;;;21.70;55.60;;;;;;4926568;29;20471;-82
2024/01/02 07:35:49;;;;;;;0.60;0.60;;;21.70;55.70;;;;;;4936254;29;20462;-87
2024/01/02 07:38:17;;;;;;;0.60;0.60;;;21.70;55.70;;;;;;4945778;29;20533;-83
2024/01/02 07:40:45;;;;;;;0.53;0.50;;;21.70;55.60;;;;;;4934296;29;20460;-84
2024/01/02 07:43:14;;;;;;;0.60;0.60;;;21.70;55.50;;;;;;4936299;29;20549;-83
2024/01/02 07:45:42;;;;;;;1.17;0.70;;;21.70;55.60;;;;;;4931939;29;20442;-83
2024/01/02 07:48:10;;;;;;;0.50;0.50;;;21.70;55.60;;;;;;4933717;29;20471;-88
2024/01/02 07:50:40;;;;;;;1.30;0.50;;;21.70;55.70;;;;;;4932026;29;20471;-82
2024/01/02 07:53:09;;;;;;;0.80;0.80;;;21.80;55.60;;;;;;4934617;29;20451;-82
2024/01/02 07:55:38;;;;;;;1.07;1.03;;;21.80;55.60;;;;;;4927374;29;20474;-84
2024/01/02 07:58:06;;;;;;;0.50;0.50;;;21.80;55.60;;;;;;4930245;29;20456;-83
2024/01/02 08:00:34;;;;;;;0.80;0.57;;;21.80;55.60;;;;;;4938106;29;20459;-85
2024/01/02 08:03:03;;;;;;;0.60;0.60;;;21.80;55.40;;;;;;4936169;29;20448;-83
2024/01/02 08:05:31;;;;;;;0.93;0.60;;;21.80;55.50;;;;;;4932811;29;20470;-84
2024/01/02 08:08:00;;;;;;;0.80;0.80;;;21.80;55.60;;;;;;4932606;29;20465;-87
2024/01/02 08:10:29;;;;;;;0.67;0.67;;;21.80;55.50;;;;;;4926703;29;20499;-83
2024/01/02 08:12:58;;;;;;;0.83;0.83;;;21.80;55.60;;;;;;4931191;29;20463;-85
2024/01/02 08:15:26;;;;;;;0.70;0.70;;;21.80;55.60;;;;;;4935648;29;20935;-83
2024/01/02 08:18:07;;;;;;;0.80;0.80;;;21.80;55.60;;;;;;4918551;29;20506;-83
2024/01/02 08:20:38;;;;;;;0.50;0.50;;;21.70;55.70;;;;;;4919688;29;20534;-83
2024/01/02 08:23:06;;;;;;;0.70;0.63;;;21.70;55.70;;;;;;4936461;29;20456;-83
2024/01/02 08:25:36;;;;;;;0.87;0.60;;;21.70;55.70;;;;;;4934476;29;20479;-83
2024/01/02 08:28:06;;;;;;;0.77;0.50;;;21.70;55.90;;;;;;4935847;29;20481;-85
2024/01/02 08:30:34;;;;;;;0.63;0.60;;;21.60;56.00;;;;;;4935266;29;20478;-82
2024/01/02 08:33:03;;;;;;;0.50;0.50;;;21.60;56.00;;;;;;4933251;29;20508;-85
2024/01/02 08:35:33;;;;;;;0.70;0.70;;;21.60;56.10;;;;;;4935289;29;20498;-84
2024/01/02 08:38:02;;;;;;;0.63;0.57;;;21.60;56.00;;;;;;4932524;29;20497;-84
2024/01/02 08:40:30;;;;;;;0.57;0.57;;;21.60;56.10;;;;;;4928912;29;20473;-90
2024/01/02 08:43:00;;;;;;;0.50;0.50;;;21.50;56.20;;;;;;4933935;29;20459;-83
2024/01/02 08:45:28;;;;;;;0.50;0.40;;;21.50;56.20;;;;;;4932461;29;20951;-83
2024/01/02 08:47:56;;;;;;;0.50;0.50;;;21.50;56.20;;;;;;4933796;29;20471;-87
2024/01/02 08:50:25;;;;;;;0.70;0.57;;;21.50;56.20;;;;;;4934089;29;21060;-85
2024/01/02 08:52:53;;;;;;;0.50;0.50;;;21.50;56.30;;;;;;4932084;29;20536;-83
2024/01/02 08:55:22;;;;;;;0.67;0.67;;;21.50;56.30;;;;;;4932423;29;20467;-83
2024/01/02 08:57:50;;;;;;;0.53;0.50;;;21.50;56.30;;;;;;4930069;29;20458;-88
2024/01/02 09:00:20;;;;;;;2.10;0.80;;;21.60;56.40;;;;;;4915667;29;20815;-85
2024/01/02 09:02:48;;;;;;;1.43;0.70;;;21.60;56.50;;;;;;4916824;29;20478;-83
2024/01/02 09:05:17;;;;;;;1.90;0.73;;;21.60;56.50;;;;;;4931180;29;20473;-89
2024/01/02 09:07:45;;;;;;;1.27;0.63;;;21.60;56.60;;;;;;4936543;29;20871;-87
2024/01/02 09:10:14;;;;;;;0.90;0.60;;;21.60;56.70;;;;;;4927629;29;20839;-86
2024/01/02 09:12:42;;;;;;;3.27;0.90;;;21.60;56.70;;;;;;4929054;29;20451;-86
2024/01/02 09:15:10;;;;;;;3.10;0.80;;;21.60;56.60;;;;;;4925782;29;20463;-89
2024/01/02 09:17:40;;;;;;;3.43;1.40;;;21.60;56.60;;;;;;4928949;29;20504;-88
2024/01/02 09:20:11;;;;;;;1.43;0.80;;;21.50;56.70;;;;;;4924737;29;21034;-92
2024/01/02 09:22:39;;;;;;;3.30;0.90;;;21.50;56.90;;;;;;4931448;29;20463;-87
2024/01/02 09:25:11;;;;;;;1.57;0.70;;;21.50;56.90;;;;;;4923810;29;20462;-86
2024/01/02 09:27:41;;;;;;;2.00;0.97;;;21.50;57.00;;;;;;4943404;29;20478;-88
2024/01/02 09:30:12;;;;;;;5.03;0.90;;;21.50;57.10;;;;;;4915874;29;20478;-87
2024/01/02 09:32:42;;;;;;;3.13;1.23;;;21.50;57.10;;;;;;4924621;29;20963;-86
2024/01/02 09:35:11;;;;;;;1.47;0.80;;;21.50;57.10;;;;;;4926483;29;20489;-88
2024/01/02 09:37:39;;;;;;;1.17;0.70;;;21.50;57.10;;;;;;4932535;29;20455;-87
2024/01/02 09:40:19;;;;;;;2.00;0.80;;;21.50;57.10;;;;;;4924149;29;20495;-88
2024/01/02 09:42:57;;;;;;;2.57;0.83;;;21.50;57.20;;;;;;4922969;29;20955;-87
2024/01/02 09:45:43;;;;;;;1.40;0.80;;;21.50;57.20;;;;;;4924832;29;20467;-88
2024/01/02 09:48:37;;;;;;;1.37;0.83;;;21.40;57.20;;;;;;4915702;29;20471;-93
2024/01/02 09:51:10;;;;;;;1.00;0.60;;;21.40;57.20;;;;;;4921208;29;20576;-87
2024/01/02 09:54:11;;;;;;;1.33;0.80;;;21.40;57.10;;;;;;4926407;29;20460;-88
2024/01/02 09:56:47;;;;;;;0.73;0.50;;;21.40;57.10;;;;;;4911333;29;20471;-88
2024/01/02 09:59:32;;;;;;;1.83;0.70;;;21.40;57.20;;;;;;4929773;29;21437;-88
2024/01/02 10:02:18;;;;;;;1.50;0.70;;;21.40;57.20;;;;;;4932831;29;20463;-89
2024/01/02 10:05:03;;;;;;;1.60;0.70;;;21.30;57.20;;;;;;4923369;29;20459;-89
2024/01/02 10:07:48;;;;;;;0.70;0.70;;;21.30;57.20;;;;;;4929333;29;20459;-89
2024/01/02 10:10:28;;;;;;;0.43;0.43;;;21.30;57.20;;;;;;4926948;29;20486;-88
2024/01/02 10:13:19;;;;;;;0.53;0.40;;;21.30;57.30;;;;;;4932925;29;20514;-88
2024/01/02 10:16:04;;;;;;;1.07;0.67;;;21.30;57.30;;;;;;4931275;29;20452;-89
2024/01/02 10:18:45;;;;;;;0.60;0.60;;;21.30;57.20;;;;;;4924483;29;20472;-91
2024/01/02 10:21:27;;;;;;;1.47;0.50;;;21.30;57.20;;;;;;4932428;29;20550;-89
2024/01/02 10:24:04;;;;;;;0.70;0.70;;;21.30;57.10;;;;;;4932939;29;20461;-89
2024/01/02 10:26:37;;;;;;;0.60;0.60;;;21.40;57.10;;;;;;4928299;29;20499;-89
2024/01/02 10:29:12;;;;;;;0.80;0.80;;;21.40;57.10;;;;;;4918619;29;20970;-89
2024/01/02 10:31:50;;;;;;;1.07;0.67;;;21.40;57.10;;;;;;4931263;29;20495;-90
2024/01/02 10:34:26;;;;;;;1.50;0.70;;;21.40;57.10;;;;;;4932304;29;20468;-90
2024/01/02 10:36:58;;;;;;;1.93;0.63;;;21.40;57.10;;;;;;4937656;29;20457;-90
2024/01/02 10:39:35;;;;;;;1.50;0.50;;;21.40;57.10;;;;;;4925051;29;20827;-89
2024/01/02 10:42:20;;;;;;;1.00;0.60;;;21.40;57.00;;;;;;4930769;29;20459;-88
2024/01/02 10:44:59;;;;;;;0.80;0.40;;;21.40;56.90;;;;;;4936160;29;20955;-89
2024/01/02 10:47:39;;;;;;;0.93;0.50;;;21.50;57.00;;;;;;4918656;29;20464;-85
2024/01/02 10:50:12;;;;;;;0.47;0.47;;;21.50;57.00;;;;;;4931207;29;20487;-89
2024/01/02 10:52:49;;;;;;;0.70;0.50;;;21.50;57.50;;;;;;4938361;29;21305;-85
2024/01/02 10:55:26;;;;;;;0.97;0.60;;;21.50;57.40;;;;;;4922423;29;20470;-86
2024/01/02 10:58:02;;;;;;;1.70;1.37;;;21.60;57.30;;;;;;4932517;29;20451;-87
2024/01/02 11:00:36;;;;;;;1.00;0.70;;;21.60;57.10;;;;;;4928621;29;20471;-87
2024/01/02 11:03:10;;;;;;;2.87;0.50;;;21.60;57.00;;;;;;4936291;29;20456;-90
2024/01/02 11:05:41;;;;;;;1.00;0.60;;;21.60;57.00;;;;;;4922400;29;20456;-86
2024/01/02 11:08:22;;;;;;;0.90;0.40;;;21.60;56.90;;;;;;4916572;29;20467;-87
2024/01/02 11:10:57;;;;;;;1.40;0.70;;;21.60;56.80;;;;;;4921034;29;20541;-87
2024/01/02 11:13:28;;;;;;;2.10;0.50;;;21.60;56.70;;;;;;4934251;29;20467;-85
2024/01/02 11:16:01;;;;;;;1.00;0.60;;;21.70;56.70;;;;;;4930903;29;20498;-87
2024/01/02 11:18:33;;;;;;;2.07;0.40;;;21.60;56.60;;;;;;4934872;29;20460;-86
2024/01/02 11:21:10;;;;;;;0.60;0.50;;;21.60;56.70;;;;;;4934304;29;20875;-89
2024/01/02 11:23:41;;;;;;;5.30;0.90;;;21.60;56.70;;;;;;4923665;29;20458;-86
2024/01/02 11:26:16;;;;;;;0.63;0.50;;;21.60;56.70;;;;;;4920669;29;20894;-91
2024/01/02 11:28:47;;;;;;;1.40;0.50;;;21.60;56.60;;;;;;4916783;29;20957;-85
2024/01/02 11:31:16;;;;;;;0.70;0.50;;;21.60;56.70;;;;;;4916820;29;20485;-87
2024/01/02 11:33:59;;;;;;;1.40;0.43;;;21.60;56.60;;;;;;4917177;29;20466;-86
2024/01/02 11:36:44;;;;;;;1.73;0.40;;;21.60;56.70;;;;;;4905924;29;20464;-87
2024/01/02 11:39:17;;;;;;;0.87;0.67;;;21.60;56.70;;;;;;4903396;29;20471;-88
2024/01/02 11:42:03;;;;;;;0.73;0.53;;;21.60;56.60;;;;;;4899508;29;20472;-89
2024/01/02 11:44:42;;;;;;;1.07;0.80;;;21.60;56.80;;;;;;4918570;29;20458;-87
2024/01/02 11:51:20;;;;;;;1.57;1.00;;;21.60;56.80;;;;;;4930269;29;20478;-86
2024/01/02 11:54:06;;;;;;;1.67;0.77;;;21.60;57.00;;;;;;4915099;29;20456;-87
2024/01/02 11:56:37;;;;;;;3.00;1.50;;;21.60;56.90;;;;;;4905923;29;20519;-85
2024/01/02 11:59:23;;;;;;;1.83;0.80;;;21.60;57.00;;;;;;4902454;29;20459;-86
2024/01/02 12:02:06;;;;;;;0.50;0.50;;;21.60;57.00;;;;;;4917682;29;20471;-91
2024/01/02 12:04:53;;;;;;;0.77;0.77;;;21.60;57.00;;;;;;4917979;29;20484;-86
2024/01/02 12:07:26;;;;;;;2.10;0.93;;;21.70;56.90;;;;;;4902653;29;20969;-88
2024/01/02 12:09:57;;;;;;;0.60;0.50;;;21.70;56.80;;;;;;4910048;29;20523;-85
2024/01/02 12:12:38;;;;;;;0.63;0.63;;;21.70;56.80;;;;;;4918449;29;20555;-85
2024/01/02 12:15:11;;;;;;;0.67;0.67;;;21.70;56.60;;;;;;4916331;29;20457;-86
2024/01/02 12:17:46;;;;;;;0.53;0.50;;;21.70;56.60;;;;;;4917510;29;20478;-90
2024/01/02 12:20:17;;;;;;;0.97;0.97;;;21.80;56.60;;;;;;4912856;29;20486;-86
2024/01/02 12:22:46;;;;;;;2.70;0.60;;;21.80;56.70;;;;;;4919203;29;20511;-86
2024/01/02 12:25:14;;;;;;;0.60;0.60;;;21.80;56.50;;;;;;4918786;29;20513;-85
2024/01/02 12:27:47;;;;;;;0.60;0.60;;;21.80;56.60;;;;;;4933062;29;20483;-85
2024/01/02 12:38:49;;;;;;;3.27;0.83;;;21.80;56.50;;;;;;4897842;29;20560;-86
2024/01/02 12:41:21;;;;;;;0.77;0.77;;;21.80;56.50;;;;;;4893078;29;20461;-85
2024/01/02 12:44:06;;;;;;;0.60;0.60;;;21.80;56.50;;;;;;4902509;29;20452;-86
2024/01/02 12:46:45;;;;;;;1.10;0.77;;;21.80;56.50;;;;;;4904088;29;20536;-87
2024/01/02 12:49:17;;;;;;;0.67;0.67;;;21.80;56.60;;;;;;4885703;29;20573;-86
2024/01/02 12:51:47;;;;;;;1.80;0.77;;;21.80;56.60;;;;;;4891069;29;20489;-86
2024/01/02 12:54:19;;;;;;;0.93;0.70;;;21.70;56.50;;;;;;4904800;29;20456;-86
2024/01/02 12:56:54;;;;;;;1.53;0.53;;;21.70;56.70;;;;;;4881646;29;20471;-86
2024/01/02 12:59:28;;;;;;;0.90;0.60;;;21.70;56.50;;;;;;4896774;29;20452;-86
2024/01/02 13:01:57;;;;;;;0.80;0.80;;;21.70;56.60;;;;;;4918192;29;20458;-86
2024/01/02 13:04:26;;;;;;;0.70;0.70;;;21.60;56.80;;;;;;4923296;29;20452;-86
2024/01/02 13:06:56;;;;;;;1.40;0.90;;;21.60;56.90;;;;;;4914267;29;20850;-86
2024/01/02 13:09:25;;;;;;;1.10;1.00;;;21.60;56.80;;;;;;4923039;29;20451;-86
2024/01/02 13:11:56;;;;;;;0.70;0.50;;;21.60;56.80;;;;;;4929842;29;20539;-86
2024/01/02 13:14:26;;;;;;;1.13;0.70;;;21.60;56.90;;;;;;4917577;29;20464;-86
2024/01/02 13:26:43;;;;;;;1.10;0.80;;;21.50;57.00;;;;;;4919250;28;20814;-86
2024/01/02 13:42:40;;;;;;;1.20;0.80;;;21.60;57.20;;;;;;4898376;29;20996;-86